createdAt,value
2023-05-05T03:02:50.260Z,10.88
2023-05-05T03:05:19.892Z,10.93
2023-05-05T03:07:56.270Z,10.95
2023-05-05T03:10:47.884Z,10.93
2023-05-05T03:13:18.778Z,10.89
2023-05-05T03:15:49.930Z,10.89
2023-05-05T03:18:21.198Z,10.86
2023-05-05T03:20:54.920Z,10.80
2023-05-05T03:23:23.922Z,10.77
2023-05-05T03:25:57.842Z,10.71
2023-05-05T03:28:34.190Z,10.72
2023-05-05T03:31:07.523Z,10.71
2023-05-05T03:33:38.241Z,10.64
2023-05-05T03:36:07.850Z,10.51
2023-05-05T03:38:37.440Z,10.36
2023-05-05T03:41:06.612Z,10.22
2023-05-05T03:43:35.898Z,10.19
2023-05-05T03:46:04.734Z,10.19
2023-05-05T03:48:34.890Z,10.22
2023-05-05T03:51:05.401Z,10.25
2023-05-05T03:53:36.757Z,10.24
2023-05-05T03:56:07.333Z,10.25
2023-05-05T03:58:36.288Z,10.25
2023-05-05T04:01:05.499Z,10.27
2023-05-05T04:03:34.635Z,10.23
2023-05-05T04:06:04.007Z,10.19
2023-05-05T04:08:32.707Z,10.17
2023-05-05T04:11:04.635Z,10.15
2023-05-05T04:13:34.730Z,10.13
2023-05-05T04:16:05.593Z,10.13
2023-05-05T04:18:34.785Z,10.14
2023-05-05T04:21:03.477Z,10.13
2023-05-05T04:23:32.652Z,10.11
2023-05-05T04:26:01.423Z,10.13
2023-05-05T04:28:30.454Z,10.14
2023-05-05T04:31:02.340Z,10.16
2023-05-05T04:33:32.380Z,10.16
2023-05-05T04:36:01.748Z,10.17
2023-05-05T04:38:31.610Z,10.19
2023-05-05T04:41:00.915Z,10.22
2023-05-05T04:43:30.285Z,10.24
2023-05-05T04:45:59.361Z,10.28
2023-05-05T04:48:31.463Z,10.27
2023-05-05T04:51:05.349Z,10.24
2023-05-05T04:53:34.656Z,10.26
2023-05-05T04:56:04.161Z,10.29
2023-05-05T04:58:33.436Z,10.33
2023-05-05T05:01:02.077Z,10.35
2023-05-05T05:03:32.126Z,10.38
2023-05-05T05:06:01.575Z,10.39
2023-05-05T05:08:30.087Z,10.40
2023-05-05T05:10:59.582Z,10.42
2023-05-05T05:13:28.649Z,10.43
2023-05-05T05:15:57.525Z,10.42
2023-05-05T05:18:26.831Z,10.44
2023-05-05T05:20:56.631Z,10.50
2023-05-05T05:23:26.001Z,10.54
2023-05-05T05:25:54.914Z,10.60
2023-05-05T05:28:27.296Z,10.60
2023-05-05T05:30:59.348Z,10.55
2023-05-05T05:33:28.422Z,10.57
2023-05-05T05:35:58.109Z,10.60
2023-05-05T05:38:27.319Z,10.53
2023-05-05T05:40:58.945Z,10.52
2023-05-05T05:43:27.944Z,10.53
2023-05-05T05:45:56.592Z,10.52
2023-05-05T05:48:28.739Z,10.47
2023-05-05T05:50:58.523Z,10.45
2023-05-05T05:53:27.919Z,10.43
2023-05-05T05:55:57.318Z,10.43
2023-05-05T05:58:26.398Z,10.45
2023-05-05T06:00:55.480Z,10.45
2023-05-05T06:03:24.769Z,10.43
2023-05-05T06:05:54.336Z,10.41
2023-05-05T06:08:24.957Z,10.37
2023-05-05T06:10:55.325Z,10.38
2023-05-05T06:13:24.414Z,10.40
2023-05-05T06:15:54.677Z,10.43
2023-05-05T06:18:23.306Z,10.43
2023-05-05T06:20:52.921Z,10.44
2023-05-05T06:23:22.858Z,10.44
2023-05-05T06:25:56.381Z,10.44
2023-05-05T06:28:25.567Z,10.46
2023-05-05T06:30:53.895Z,10.48
2023-05-05T06:33:22.956Z,10.49
2023-05-05T06:35:52.456Z,10.53
2023-05-05T06:38:21.741Z,10.58
2023-05-05T06:40:50.966Z,10.61
2023-05-05T06:43:19.870Z,10.61
2023-05-05T06:45:55.485Z,10.60
2023-05-05T06:48:24.415Z,10.64
2023-05-05T06:50:53.359Z,10.64
2023-05-05T06:53:22.577Z,10.62
2023-05-05T06:55:52.025Z,10.62
2023-05-05T06:58:21.934Z,10.64
2023-05-05T07:00:51.240Z,10.67
2023-05-05T07:03:20.746Z,10.70
2023-05-05T07:05:49.657Z,10.70
2023-05-05T07:08:20.976Z,10.71
2023-05-05T07:10:50.725Z,10.72
2023-05-05T07:13:19.875Z,10.69
2023-05-05T07:15:49.236Z,10.63
2023-05-05T07:18:18.388Z,10.65
2023-05-05T07:20:47.527Z,10.63
2023-05-05T07:23:17.006Z,10.63
2023-05-05T07:25:46.000Z,10.63
2023-05-05T07:28:14.887Z,10.66
2023-05-05T07:30:44.230Z,10.71
2023-05-05T07:33:13.535Z,10.76
2023-05-05T07:35:42.577Z,10.80
2023-05-05T07:38:11.725Z,10.83
2023-05-05T07:40:40.676Z,10.87
2023-05-05T07:43:09.611Z,10.90
2023-05-05T07:45:39.206Z,10.95
2023-05-05T07:48:08.522Z,11.00
2023-05-05T07:50:37.391Z,11.04
2023-05-05T07:53:14.371Z,11.01
2023-05-05T07:55:44.629Z,11.05
2023-05-05T07:58:13.125Z,11.11
2023-05-05T08:00:43.341Z,11.17
2023-05-05T08:03:12.555Z,11.22
2023-05-05T08:05:41.663Z,11.28
2023-05-05T08:08:10.825Z,11.32
2023-05-05T08:10:41.097Z,11.35
2023-05-05T08:13:10.155Z,11.39
2023-05-05T08:15:39.051Z,11.45
2023-05-05T08:18:08.107Z,11.50
2023-05-05T08:20:37.297Z,11.57
2023-05-05T08:23:05.714Z,11.64
2023-05-05T08:25:34.660Z,11.73
2023-05-05T08:28:03.747Z,11.80
2023-05-05T08:30:32.725Z,11.88
2023-05-05T08:33:01.725Z,11.96
2023-05-05T08:35:30.564Z,12.01
2023-05-05T08:37:59.464Z,12.01
2023-05-05T08:40:34.755Z,12.02
2023-05-05T08:43:03.747Z,12.06
2023-05-05T08:45:33.127Z,12.14
2023-05-05T08:48:03.079Z,12.19
2023-05-05T08:50:33.098Z,12.26
2023-05-05T08:53:01.953Z,12.40
2023-05-05T08:55:34.977Z,12.49
2023-05-05T08:58:04.773Z,12.60
2023-05-05T09:00:34.451Z,12.71
2023-05-05T09:03:03.959Z,12.82
2023-05-05T09:05:33.293Z,12.94
2023-05-05T09:08:02.329Z,13.07
2023-05-05T09:10:31.662Z,13.27
2023-05-05T09:13:00.988Z,13.59
2023-05-05T09:15:30.258Z,13.90
2023-05-05T09:17:59.739Z,14.10
2023-05-05T09:20:38.901Z,14.26
2023-05-05T09:23:16.940Z,14.39
2023-05-05T09:25:46.795Z,14.48
2023-05-05T09:28:16.935Z,14.57
2023-05-05T09:30:46.799Z,14.67
2023-05-05T09:33:29.463Z,14.74
2023-05-05T09:35:58.722Z,14.75
2023-05-05T09:38:27.693Z,14.78
2023-05-05T09:40:57.090Z,14.74
2023-05-05T09:43:26.056Z,14.82
2023-05-05T09:46:07.077Z,14.91
2023-05-05T09:48:36.457Z,14.99
2023-05-05T09:51:06.572Z,15.09
2023-05-05T09:53:39.812Z,15.16
2023-05-05T09:56:12.840Z,15.17
2023-05-05T09:58:42.449Z,15.15
2023-05-05T10:01:23.166Z,15.16
2023-05-05T10:03:55.347Z,15.19
2023-05-05T10:06:39.718Z,15.17
2023-05-05T10:09:08.926Z,15.13
2023-05-05T10:11:38.033Z,15.17
2023-05-05T10:14:07.516Z,15.19
2023-05-05T10:16:37.198Z,15.17
2023-05-05T10:19:07.082Z,15.21
2023-05-05T10:21:41.456Z,15.27
2023-05-05T10:24:15.788Z,15.34
2023-05-05T10:26:44.776Z,15.39
2023-05-05T10:29:32.661Z,15.43
2023-05-05T10:32:27.209Z,15.45
2023-05-05T10:35:02.020Z,15.43
2023-05-05T10:37:31.448Z,15.43
2023-05-05T10:40:02.368Z,15.44
2023-05-05T10:42:32.768Z,15.45
2023-05-05T10:45:02.128Z,15.49
2023-05-05T10:47:31.281Z,15.54
2023-05-05T10:50:08.215Z,15.58
2023-05-05T10:52:37.770Z,15.66
2023-05-05T10:55:12.835Z,15.71
2023-05-05T10:57:42.868Z,15.75
2023-05-05T11:00:32.218Z,15.82
2023-05-05T11:03:17.136Z,15.88
2023-05-05T11:06:04.870Z,15.89
2023-05-05T11:08:46.434Z,15.92
2023-05-05T11:11:15.176Z,15.96
2023-05-05T11:13:44.120Z,16.00
2023-05-05T11:16:31.906Z,16.01
2023-05-05T11:19:00.865Z,16.10
2023-05-05T11:21:29.859Z,16.12
2023-05-05T11:24:18.908Z,16.13
2023-05-05T11:26:52.489Z,16.13
2023-05-05T11:29:22.236Z,16.13
2023-05-05T11:32:11.458Z,16.11
2023-05-05T11:34:50.898Z,15.96
2023-05-05T11:37:23.235Z,15.84
2023-05-05T11:40:00.873Z,15.77
2023-05-05T11:42:30.807Z,15.65
2023-05-05T11:45:01.052Z,15.51
2023-05-05T11:47:31.314Z,15.38
2023-05-05T11:50:15.938Z,15.33
2023-05-05T11:52:45.289Z,15.30
2023-05-05T11:55:20.633Z,15.31
2023-05-05T11:57:49.553Z,15.33
2023-05-05T12:00:18.783Z,15.39
2023-05-05T12:02:48.187Z,15.53
2023-05-05T12:05:20.724Z,15.66
2023-05-05T12:07:56.499Z,15.76
2023-05-05T12:10:25.526Z,15.89
2023-05-05T12:12:55.435Z,15.99
2023-05-05T12:15:31.570Z,16.10
2023-05-05T12:18:02.647Z,16.21
2023-05-05T12:20:33.694Z,16.25
2023-05-05T12:23:03.626Z,16.30
2023-05-05T12:25:36.778Z,16.33
2023-05-05T12:28:09.330Z,16.35
2023-05-05T12:30:38.514Z,16.40
2023-05-05T12:33:08.555Z,16.37
2023-05-05T12:35:37.761Z,16.34
2023-05-05T12:38:06.584Z,16.33
2023-05-05T12:40:48.009Z,16.34
2023-05-05T12:43:24.221Z,16.34
2023-05-05T12:46:03.925Z,16.29
2023-05-05T12:48:33.248Z,16.25
2023-05-05T12:51:23.720Z,16.24
2023-05-05T12:54:02.841Z,16.20
2023-05-05T12:56:36.089Z,16.18
2023-05-05T12:59:06.029Z,16.24
2023-05-05T13:01:36.063Z,16.26
2023-05-05T13:04:06.048Z,16.26
2023-05-05T13:06:35.485Z,16.25
2023-05-05T13:09:05.176Z,16.25
2023-05-05T13:11:37.966Z,16.31
2023-05-05T13:14:07.918Z,16.23
2023-05-05T13:16:37.359Z,16.12
2023-05-05T13:19:06.362Z,16.12
2023-05-05T13:21:37.622Z,16.12
2023-05-05T13:24:21.361Z,16.18
2023-05-05T13:26:56.277Z,16.24
2023-05-05T13:29:29.466Z,16.30
2023-05-05T13:32:00.952Z,16.33
2023-05-05T13:34:30.029Z,16.38
2023-05-05T13:36:59.099Z,16.36
2023-05-05T13:39:28.216Z,16.38
2023-05-05T13:41:57.525Z,16.38
2023-05-05T13:44:26.497Z,16.37
2023-05-05T13:46:55.240Z,16.31
2023-05-05T13:49:24.326Z,16.25
2023-05-05T13:51:53.287Z,16.26
2023-05-05T13:54:22.814Z,16.25
2023-05-05T13:56:52.071Z,16.16
2023-05-05T13:59:21.203Z,16.05
2023-05-05T14:01:50.325Z,16.09
2023-05-05T14:04:19.363Z,16.11
2023-05-05T14:06:48.519Z,16.12
2023-05-05T14:09:17.715Z,16.18
2023-05-05T14:11:46.540Z,16.24
2023-05-05T14:14:15.349Z,16.27
2023-05-05T14:16:44.264Z,16.16
2023-05-05T14:19:12.490Z,16.07
2023-05-05T14:21:41.043Z,15.96
2023-05-05T14:24:10.035Z,15.93
2023-05-05T14:26:38.676Z,15.96
2023-05-05T14:29:07.652Z,15.96
2023-05-05T14:31:37.092Z,15.86
2023-05-05T14:34:06.879Z,15.76
2023-05-05T14:36:35.590Z,15.65
2023-05-05T14:39:04.857Z,15.58
2023-05-05T14:41:33.791Z,15.49
2023-05-05T14:44:03.328Z,15.42
2023-05-05T14:46:32.381Z,15.40
2023-05-05T14:49:01.360Z,15.37
2023-05-05T14:51:30.655Z,15.36
2023-05-05T14:53:59.954Z,15.31
2023-05-05T14:56:28.534Z,15.35
2023-05-05T14:58:57.640Z,15.35
2023-05-05T15:01:26.703Z,15.34
2023-05-05T15:03:55.640Z,15.35
2023-05-05T15:06:24.777Z,15.31
2023-05-05T15:08:53.561Z,15.33
2023-05-05T15:11:22.789Z,15.33
2023-05-05T15:13:51.790Z,15.29
2023-05-05T15:16:20.272Z,15.26
2023-05-05T15:18:49.534Z,15.19
2023-05-05T15:21:18.843Z,15.13
2023-05-05T15:23:48.132Z,15.10
2023-05-05T15:26:17.454Z,15.10
2023-05-05T15:28:47.682Z,15.06
2023-05-05T15:31:17.432Z,15.02
2023-05-05T15:33:49.088Z,14.96
2023-05-05T15:36:23.347Z,14.92
2023-05-05T15:38:52.252Z,14.84
2023-05-05T15:41:21.442Z,14.78
2023-05-05T15:43:50.826Z,14.73
2023-05-05T15:46:19.584Z,14.69
2023-05-05T15:48:48.614Z,14.63
2023-05-05T15:51:17.724Z,14.59
2023-05-05T15:53:47.120Z,14.54
2023-05-05T15:56:16.318Z,14.49
2023-05-05T15:58:45.454Z,14.44
2023-05-05T16:01:14.489Z,14.42
2023-05-05T16:03:43.515Z,14.42
2023-05-05T16:06:12.962Z,14.37
2023-05-05T16:08:41.912Z,14.30
2023-05-05T16:11:10.866Z,14.28
2023-05-05T16:13:39.744Z,14.28
2023-05-05T16:16:08.866Z,14.24
2023-05-05T16:18:38.198Z,14.19
2023-05-05T16:21:07.311Z,14.17
2023-05-05T16:23:36.645Z,14.17
2023-05-05T16:26:06.032Z,14.17
2023-05-05T16:28:35.542Z,14.19
2023-05-05T16:31:04.554Z,14.18
2023-05-05T16:33:33.826Z,14.14
2023-05-05T16:36:03.469Z,14.12
2023-05-05T16:38:32.931Z,14.12
2023-05-05T16:41:02.412Z,14.14
2023-05-05T16:43:31.465Z,14.13
2023-05-05T16:46:00.706Z,14.12
2023-05-05T16:48:29.443Z,14.09
2023-05-05T16:50:59.551Z,14.06
2023-05-05T16:53:29.065Z,14.07
2023-05-05T16:55:58.495Z,14.05
2023-05-05T16:58:27.516Z,14.04
2023-05-05T17:00:56.801Z,14.06
2023-05-05T17:03:26.020Z,14.04
2023-05-05T17:05:55.078Z,14.00
2023-05-05T17:08:24.158Z,13.96
2023-05-05T17:10:53.479Z,13.88
2023-05-05T17:13:23.414Z,13.77
2023-05-05T17:15:52.293Z,13.70
2023-05-05T17:18:23.343Z,13.65
2023-05-05T17:20:52.966Z,13.56
2023-05-05T17:23:22.437Z,13.47
2023-05-05T17:25:52.076Z,13.37
2023-05-05T17:28:21.283Z,13.30
2023-05-05T17:30:50.322Z,13.27
2023-05-05T17:33:22.279Z,13.25
2023-05-05T17:35:51.802Z,13.19
2023-05-05T17:38:20.979Z,13.11
2023-05-05T17:40:49.855Z,13.08
2023-05-05T17:43:18.721Z,13.05
2023-05-05T17:45:47.872Z,13.00
2023-05-05T17:48:16.357Z,12.97
2023-05-05T17:50:45.361Z,12.90
2023-05-05T17:53:14.036Z,12.83
2023-05-05T17:55:46.790Z,12.80
2023-05-05T17:58:15.532Z,12.78
2023-05-05T18:00:44.591Z,12.75
2023-05-05T18:03:13.318Z,12.71
2023-05-05T18:05:42.632Z,12.68
2023-05-05T18:08:11.757Z,12.63
2023-05-05T18:10:40.935Z,12.58
2023-05-05T18:13:09.876Z,12.52
2023-05-05T18:15:41.958Z,12.46
2023-05-05T18:18:11.308Z,12.40
2023-05-05T18:20:39.538Z,12.35
2023-05-05T18:23:08.594Z,12.29
2023-05-05T18:25:37.269Z,12.24
2023-05-05T18:28:06.455Z,12.18
2023-05-05T18:30:36.628Z,12.10
2023-05-05T18:33:06.093Z,12.03
2023-05-05T18:35:35.040Z,11.94
2023-05-05T18:38:04.509Z,11.82
2023-05-05T18:40:33.523Z,11.72
2023-05-05T18:43:03.097Z,11.66
2023-05-05T18:45:32.077Z,11.61
2023-05-05T18:48:02.409Z,11.53
2023-05-05T18:50:33.682Z,11.46
2023-05-05T18:53:02.382Z,11.38
2023-05-05T18:55:30.600Z,11.32
2023-05-05T18:58:00.733Z,11.27
2023-05-05T19:00:30.044Z,11.24
2023-05-05T19:02:58.440Z,11.18
2023-05-05T19:05:27.620Z,11.14
2023-05-05T19:07:56.483Z,11.08
2023-05-05T19:10:25.313Z,11.01
2023-05-05T19:12:55.994Z,10.93
2023-05-05T19:15:25.132Z,10.87
2023-05-05T19:17:54.731Z,10.79
2023-05-05T19:20:23.725Z,10.75
2023-05-05T19:22:53.265Z,10.71
2023-05-05T19:25:21.819Z,10.65
2023-05-05T19:27:50.645Z,10.59
2023-05-05T19:30:19.552Z,10.52
2023-05-05T19:32:47.934Z,10.42
2023-05-05T19:35:16.702Z,10.32
2023-05-05T19:37:44.907Z,10.25
2023-05-05T19:40:13.774Z,10.20
2023-05-05T19:42:42.406Z,10.13
2023-05-05T19:45:10.735Z,10.06
2023-05-05T19:47:39.747Z,9.99
2023-05-05T19:50:08.732Z,9.91
2023-05-05T19:52:38.604Z,9.87
2023-05-05T19:55:07.797Z,9.82
2023-05-05T19:57:37.072Z,9.77
2023-05-05T20:00:07.127Z,9.71
2023-05-05T20:02:37.133Z,9.68
2023-05-05T20:05:06.457Z,9.65
2023-05-05T20:07:35.516Z,9.61
2023-05-05T20:10:04.236Z,9.55
2023-05-05T20:12:33.432Z,9.52
2023-05-05T20:15:02.841Z,9.50
2023-05-05T20:17:32.071Z,9.46
2023-05-05T20:20:00.708Z,9.45
2023-05-05T20:22:28.954Z,9.41
2023-05-05T20:25:01.330Z,9.36
2023-05-05T20:27:30.547Z,9.30
2023-05-05T20:29:59.890Z,9.26
2023-05-05T20:32:28.688Z,9.23
2023-05-05T20:34:58.043Z,9.22
2023-05-05T20:37:27.664Z,9.20
2023-05-05T20:39:58.094Z,9.17
2023-05-05T20:42:28.286Z,9.14
2023-05-05T20:44:57.181Z,9.13
2023-05-05T20:47:27.344Z,9.09
2023-05-05T20:49:56.561Z,9.03
2023-05-05T20:52:25.617Z,8.97
2023-05-05T20:54:54.493Z,8.91
2023-05-05T20:57:24.117Z,8.89
2023-05-05T20:59:53.141Z,8.87
2023-05-05T21:02:22.308Z,8.85
2023-05-05T21:04:51.773Z,8.83
2023-05-05T21:07:20.630Z,8.80
2023-05-05T21:09:49.723Z,8.77
2023-05-05T21:12:19.241Z,8.75
2023-05-05T21:14:50.793Z,8.71
2023-05-05T21:17:19.836Z,8.65
2023-05-05T21:19:49.617Z,8.62
2023-05-05T21:22:19.017Z,8.58
2023-05-05T21:24:48.245Z,8.55
2023-05-05T21:27:16.900Z,8.52
2023-05-05T21:29:46.611Z,8.50
2023-05-05T21:32:15.886Z,8.48
2023-05-05T21:34:45.121Z,8.46
2023-05-05T21:37:14.432Z,8.46
2023-05-05T21:39:43.137Z,8.44
2023-05-05T21:42:12.686Z,8.41
2023-05-05T21:44:41.634Z,8.38
2023-05-05T21:47:10.866Z,8.35
2023-05-05T21:49:39.981Z,8.31
2023-05-05T21:52:08.369Z,8.29
2023-05-05T21:54:37.237Z,8.28
2023-05-05T21:57:06.797Z,8.27
2023-05-05T21:59:35.093Z,8.24
2023-05-05T22:02:06.809Z,8.21
2023-05-05T22:04:35.646Z,8.18
2023-05-05T22:07:04.813Z,8.14
2023-05-05T22:09:34.260Z,8.11
2023-05-05T22:12:03.154Z,8.08
2023-05-05T22:14:31.533Z,8.07
2023-05-05T22:17:00.386Z,8.08
2023-05-05T22:19:29.250Z,8.10
2023-05-05T22:21:59.102Z,8.09
2023-05-05T22:24:28.437Z,8.10
2023-05-05T22:26:57.815Z,8.13
2023-05-05T22:29:27.009Z,8.11
2023-05-05T22:31:56.344Z,8.08
2023-05-05T22:34:26.616Z,8.02
2023-05-05T22:36:55.993Z,7.98
2023-05-05T22:39:25.086Z,7.94
2023-05-05T22:41:54.327Z,7.87
2023-05-05T22:44:23.464Z,7.84
2023-05-05T22:46:52.544Z,7.82
2023-05-05T22:49:21.778Z,7.78
2023-05-05T22:51:51.803Z,7.76
2023-05-05T22:54:21.193Z,7.74
2023-05-05T22:56:50.955Z,7.69
2023-05-05T22:59:19.832Z,7.64
2023-05-05T23:01:48.792Z,7.61
2023-05-05T23:04:17.923Z,7.60
2023-05-05T23:06:47.081Z,7.60
2023-05-05T23:09:16.420Z,7.54
2023-05-05T23:11:45.348Z,7.50
2023-05-05T23:14:14.373Z,7.44
2023-05-05T23:16:43.298Z,7.39
2023-05-05T23:19:13.659Z,7.37
2023-05-05T23:21:52.500Z,7.37
2023-05-05T23:24:22.873Z,7.36
2023-05-05T23:26:52.567Z,7.32
2023-05-05T23:29:21.688Z,7.28
2023-05-05T23:31:50.127Z,7.25
2023-05-05T23:34:19.296Z,7.23
2023-05-05T23:36:48.327Z,7.19
2023-05-05T23:39:16.824Z,7.16
2023-05-05T23:41:45.740Z,7.16
2023-05-05T23:44:14.819Z,7.14
2023-05-05T23:46:43.763Z,7.14
2023-05-05T23:49:13.015Z,7.14
2023-05-05T23:51:42.050Z,7.13
2023-05-05T23:54:11.183Z,7.12
2023-05-05T23:56:41.302Z,7.14
2023-05-05T23:59:11.051Z,7.13
